createdAt,value
2019-03-03T00:00:18.625Z,85.19
2019-03-03T00:01:19.325Z,85.09
2019-03-03T00:02:18.598Z,85.60
2019-03-03T00:03:18.562Z,83.96
2019-03-03T00:04:19.141Z,83.86
2019-03-03T00:05:18.640Z,81.29
2019-03-03T00:06:18.534Z,80.33
2019-03-03T00:07:18.973Z,79.93
2019-03-03T00:08:18.503Z,79.72
2019-03-03T00:09:18.511Z,79.62
2019-03-03T00:10:18.509Z,80.23
2019-03-03T00:11:18.632Z,80.33
2019-03-03T00:12:18.468Z,80.44
2019-03-03T00:13:18.471Z,80.54
2019-03-03T00:14:18.810Z,80.54
2019-03-03T00:15:18.434Z,80.54
2019-03-03T00:16:18.428Z,80.64
2019-03-03T00:17:18.525Z,80.44
2019-03-03T00:18:18.403Z,80.54
2019-03-03T00:19:18.408Z,80.68
2019-03-03T00:20:18.392Z,80.33
2019-03-03T00:21:18.849Z,80.44
2019-03-03T00:22:18.388Z,80.13
2019-03-03T00:23:19.281Z,80.33
2019-03-03T00:24:18.394Z,80.54
2019-03-03T00:25:18.331Z,79.62
2019-03-03T00:26:18.323Z,79.96
2019-03-03T00:27:18.320Z,79.45
2019-03-03T00:28:18.693Z,79.62
2019-03-03T00:29:18.697Z,79.45
2019-03-03T00:30:18.282Z,79.45
2019-03-03T00:31:18.306Z,79.93
2019-03-03T00:32:18.258Z,79.66
2019-03-03T00:33:18.257Z,78.94
2019-03-03T00:34:18.239Z,78.90
2019-03-03T00:35:18.824Z,79.04
2019-03-03T00:36:18.215Z,79.55
2019-03-03T00:37:18.197Z,78.70
2019-03-03T00:38:18.209Z,78.90
2019-03-03T00:39:18.244Z,78.70
2019-03-03T00:40:18.191Z,79.31
2019-03-03T00:41:18.285Z,79.82
2019-03-03T00:42:18.570Z,79.31
2019-03-03T00:43:18.144Z,79.75
2019-03-03T00:44:18.120Z,79.75
2019-03-03T00:45:18.169Z,79.35
2019-03-03T00:46:18.107Z,79.93
2019-03-03T00:47:18.253Z,80.03
2019-03-03T00:48:18.083Z,79.35
2019-03-03T00:49:18.416Z,79.11
2019-03-03T00:50:18.808Z,79.62
2019-03-03T00:51:18.078Z,79.11
2019-03-03T00:52:18.048Z,79.31
2019-03-03T00:53:18.886Z,79.11
2019-03-03T00:54:18.059Z,79.66
2019-03-03T00:55:18.014Z,79.72
2019-03-03T00:56:18.449Z,79.62
2019-03-03T00:57:17.987Z,79.93
2019-03-03T00:58:18.013Z,79.93
2019-03-03T00:59:17.995Z,79.82
2019-03-03T01:00:17.970Z,80.03
2019-03-03T01:01:17.960Z,79.82
2019-03-03T01:02:17.954Z,80.03
2019-03-03T01:03:18.310Z,79.72
2019-03-03T01:04:17.924Z,79.52
2019-03-03T01:05:17.995Z,79.72
2019-03-03T01:06:18.774Z,79.72
2019-03-03T01:07:17.882Z,80.23
2019-03-03T01:08:17.907Z,80.23
2019-03-03T01:09:17.884Z,80.44
2019-03-03T01:10:18.234Z,79.93
2019-03-03T01:11:17.890Z,80.13
2019-03-03T01:12:17.835Z,80.23
2019-03-03T01:13:17.825Z,79.93
2019-03-03T01:14:17.814Z,80.23
2019-03-03T01:15:17.825Z,79.93
2019-03-03T01:16:17.772Z,80.23
2019-03-03T01:17:18.358Z,79.93
2019-03-03T01:18:17.764Z,80.33
2019-03-03T01:19:17.753Z,80.23
2019-03-03T01:20:17.757Z,80.13
2019-03-03T01:21:17.767Z,80.03
2019-03-03T01:22:17.733Z,79.93
2019-03-03T01:23:18.032Z,80.23
2019-03-03T01:24:18.116Z,80.33
2019-03-03T01:25:17.710Z,80.23
2019-03-03T01:26:17.678Z,80.23
2019-03-03T01:27:17.709Z,80.23
2019-03-03T01:28:17.665Z,80.23
2019-03-03T01:29:17.701Z,80.13
2019-03-03T01:30:17.637Z,80.33
2019-03-03T01:31:17.637Z,80.13
2019-03-03T01:32:17.610Z,80.13
2019-03-03T01:33:17.606Z,80.03
2019-03-03T01:34:17.601Z,80.44
2019-03-03T01:35:17.635Z,80.13
2019-03-03T01:36:17.555Z,80.03
2019-03-03T01:37:18.014Z,80.23
2019-03-03T01:38:17.548Z,80.13
2019-03-03T01:39:17.530Z,80.33
2019-03-03T01:40:17.531Z,80.03
2019-03-03T01:41:17.590Z,80.13
2019-03-03T01:42:17.505Z,80.23
2019-03-03T01:43:17.501Z,79.93
2019-03-03T01:44:18.873Z,79.11
2019-03-03T01:45:17.474Z,80.13
2019-03-03T01:46:17.474Z,80.23
2019-03-03T01:47:17.527Z,80.03
2019-03-03T01:48:17.443Z,79.93
2019-03-03T01:49:17.423Z,79.72
2019-03-03T01:50:17.451Z,79.72
2019-03-03T01:51:17.412Z,79.21
2019-03-03T01:52:17.389Z,79.72
2019-03-03T01:53:17.463Z,79.72
2019-03-03T01:54:17.385Z,79.68
2019-03-03T01:55:17.358Z,78.86
2019-03-03T01:56:18.757Z,79.38
2019-03-03T01:57:17.344Z,78.76
2019-03-03T01:58:17.340Z,79.00
2019-03-03T01:59:17.638Z,78.80
2019-03-03T02:00:17.310Z,78.49
2019-03-03T02:01:17.331Z,79.00
2019-03-03T02:02:17.301Z,78.35
2019-03-03T02:03:17.771Z,78.35
2019-03-03T02:04:17.273Z,78.35
2019-03-03T02:05:17.310Z,78.45
2019-03-03T02:06:17.287Z,77.64
2019-03-03T02:07:17.253Z,78.15
2019-03-03T02:08:17.227Z,77.94
2019-03-03T02:09:17.200Z,77.23
2019-03-03T02:10:17.186Z,77.84
2019-03-03T02:11:17.240Z,77.84
2019-03-03T02:12:17.201Z,77.23
2019-03-03T02:13:17.185Z,77.33
2019-03-03T02:14:17.149Z,77.53
2019-03-03T02:15:17.628Z,77.53
2019-03-03T02:16:17.135Z,77.53
2019-03-03T02:17:17.333Z,77.53
2019-03-03T02:18:17.114Z,77.43
2019-03-03T02:19:17.174Z,77.23
2019-03-03T02:20:17.077Z,77.23
2019-03-03T02:21:17.077Z,77.02
2019-03-03T02:22:17.471Z,77.43
2019-03-03T02:23:17.094Z,77.23
2019-03-03T02:24:17.073Z,77.33
2019-03-03T02:25:17.035Z,77.64
2019-03-03T02:26:17.057Z,77.43
2019-03-03T02:27:17.023Z,77.64
2019-03-03T02:28:17.000Z,76.92
2019-03-03T02:29:17.401Z,77.43
2019-03-03T02:30:16.979Z,76.72
2019-03-03T02:31:16.985Z,76.72
2019-03-03T02:32:18.176Z,77.33
2019-03-03T02:33:16.948Z,77.53
2019-03-03T02:34:16.968Z,77.33
2019-03-03T02:35:17.013Z,76.92
2019-03-03T02:36:18.385Z,76.72
2019-03-03T02:37:16.925Z,76.61
2019-03-03T02:38:16.900Z,76.40
2019-03-03T02:39:16.939Z,76.72
2019-03-03T02:40:16.885Z,76.51
2019-03-03T02:41:16.923Z,76.10
2019-03-03T02:42:16.851Z,76.31
2019-03-03T02:43:17.223Z,75.99
2019-03-03T02:44:16.830Z,75.69
2019-03-03T02:45:16.835Z,75.48
2019-03-03T02:46:16.862Z,75.89
2019-03-03T02:47:16.846Z,76.51
2019-03-03T02:48:16.797Z,75.59
2019-03-03T02:49:16.807Z,75.79
2019-03-03T02:50:17.254Z,76.10
2019-03-03T02:51:16.795Z,75.89
2019-03-03T02:52:16.795Z,75.69
2019-03-03T02:53:16.902Z,76.20
2019-03-03T02:54:16.754Z,76.20
2019-03-03T02:55:16.700Z,75.28
2019-03-03T02:56:16.720Z,75.69
2019-03-03T02:57:18.337Z,75.07
2019-03-03T02:58:16.710Z,74.77
2019-03-03T02:59:16.726Z,74.43
2019-03-03T03:01:38.295Z,74.56
2019-03-03T03:02:37.680Z,74.63
2019-03-03T03:03:37.660Z,74.02
2019-03-03T03:04:37.655Z,74.05
2019-03-03T03:05:37.640Z,74.11
2019-03-03T03:06:37.746Z,74.32
2019-03-03T03:07:38.059Z,74.73
2019-03-03T03:08:37.602Z,74.73
2019-03-03T03:09:37.595Z,74.87
2019-03-03T03:10:37.586Z,74.77
2019-03-03T03:11:37.567Z,74.53
2019-03-03T03:12:37.570Z,74.43
2019-03-03T03:13:37.580Z,74.22
2019-03-03T03:14:37.538Z,73.95
2019-03-03T03:15:40.351Z,74.66
2019-03-03T03:16:37.545Z,74.77
2019-03-03T03:17:37.491Z,74.73
2019-03-03T03:18:37.493Z,74.15
2019-03-03T03:19:37.932Z,74.11
2019-03-03T03:20:37.486Z,74.02
2019-03-03T03:21:37.453Z,73.81
2019-03-03T03:22:37.485Z,74.36
2019-03-03T03:23:37.434Z,74.77
2019-03-03T03:24:37.439Z,74.77
2019-03-03T03:25:37.453Z,74.05
2019-03-03T03:26:37.929Z,74.32
2019-03-03T03:27:37.412Z,73.61
2019-03-03T03:28:37.377Z,74.26
2019-03-03T03:29:37.407Z,74.05
2019-03-03T03:30:37.372Z,74.53
2019-03-03T03:31:37.376Z,74.43
2019-03-03T03:32:37.339Z,74.05
2019-03-03T03:33:37.767Z,74.15
2019-03-03T03:34:37.350Z,74.11
2019-03-03T03:35:37.309Z,73.95
2019-03-03T03:36:37.309Z,73.91
2019-03-03T03:37:37.341Z,73.30
2019-03-03T03:38:37.279Z,74.26
2019-03-03T03:39:37.278Z,74.05
2019-03-03T03:40:37.630Z,73.85
2019-03-03T03:41:37.241Z,73.85
2019-03-03T03:42:37.246Z,74.15
2019-03-03T03:43:37.275Z,74.15
2019-03-03T03:44:37.227Z,73.95
2019-03-03T03:45:37.211Z,74.26
2019-03-03T03:46:37.261Z,74.05
2019-03-03T03:47:38.710Z,74.02
2019-03-03T03:48:37.170Z,74.32
2019-03-03T03:49:37.256Z,74.53
2019-03-03T03:50:37.188Z,73.95
2019-03-03T03:51:37.134Z,74.46
2019-03-03T03:52:37.154Z,74.26
2019-03-03T03:53:37.137Z,74.05
2019-03-03T03:54:37.505Z,74.46
2019-03-03T03:55:37.164Z,74.15
2019-03-03T03:56:37.081Z,73.74
2019-03-03T03:57:37.065Z,74.26
2019-03-03T03:58:37.069Z,74.15
2019-03-03T03:59:37.053Z,74.77
2019-03-03T04:00:37.156Z,73.85
2019-03-03T04:01:37.056Z,74.26
2019-03-03T04:02:37.007Z,74.05
2019-03-03T04:03:37.557Z,74.36
2019-03-03T04:04:37.000Z,74.05
2019-03-03T04:05:36.990Z,74.26
2019-03-03T04:06:36.974Z,74.56
2019-03-03T04:07:37.462Z,74.36
2019-03-03T04:08:36.979Z,74.26
2019-03-03T04:09:36.945Z,74.26
2019-03-03T04:10:36.927Z,74.36
2019-03-03T04:11:36.931Z,74.77
2019-03-03T04:12:36.916Z,74.77
2019-03-03T04:13:36.967Z,74.05
2019-03-03T04:14:37.229Z,74.26
2019-03-03T04:15:36.891Z,73.95
2019-03-03T04:16:36.925Z,74.36
2019-03-03T04:17:36.885Z,73.85
2019-03-03T04:18:36.853Z,74.05
2019-03-03T04:19:36.880Z,74.05
2019-03-03T04:20:37.564Z,74.05
2019-03-03T04:21:37.270Z,74.05
2019-03-03T04:22:36.798Z,73.54
2019-03-03T04:23:36.792Z,74.05
2019-03-03T04:24:36.785Z,73.74
2019-03-03T04:25:36.795Z,74.05
2019-03-03T04:26:36.773Z,73.54
2019-03-03T04:27:36.749Z,73.40
2019-03-03T04:28:38.138Z,73.44
2019-03-03T04:29:36.748Z,73.44
2019-03-03T04:30:36.715Z,73.44
2019-03-03T04:31:36.780Z,73.54
2019-03-03T04:32:36.715Z,74.46
2019-03-03T04:33:36.687Z,73.64
2019-03-03T04:34:36.705Z,74.56
2019-03-03T04:35:37.156Z,72.92
2019-03-03T04:36:36.667Z,73.20
2019-03-03T04:37:36.709Z,73.33
2019-03-03T04:38:36.628Z,73.44
2019-03-03T04:39:36.628Z,74.15
2019-03-03T04:40:36.605Z,74.15
2019-03-03T04:41:36.597Z,74.15
2019-03-03T04:42:37.010Z,73.64
2019-03-03T04:43:36.648Z,73.64
2019-03-03T04:44:36.583Z,73.64
2019-03-03T04:45:36.573Z,74.05
2019-03-03T04:46:36.545Z,74.05
2019-03-03T04:47:36.530Z,74.36
2019-03-03T04:48:36.541Z,73.74
2019-03-03T04:49:37.066Z,73.33
2019-03-03T04:50:36.496Z,73.03
2019-03-03T04:51:36.529Z,73.03
2019-03-03T04:52:36.498Z,72.61
2019-03-03T04:53:36.470Z,72.89
2019-03-03T04:54:36.460Z,72.82
2019-03-03T04:55:36.492Z,72.82
2019-03-03T04:56:36.866Z,72.99
2019-03-03T04:57:36.444Z,73.54
2019-03-03T04:58:36.406Z,72.92
2019-03-03T04:59:36.447Z,73.33
2019-03-03T05:00:36.393Z,73.23
2019-03-03T05:01:36.434Z,73.13
2019-03-03T05:02:36.373Z,73.74
2019-03-03T05:03:36.709Z,73.74
2019-03-03T05:04:36.345Z,73.61
2019-03-03T05:05:36.366Z,73.54
2019-03-03T05:06:36.340Z,73.64
2019-03-03T05:07:36.659Z,73.54
2019-03-03T05:08:36.355Z,73.54
2019-03-03T05:09:36.310Z,74.56
2019-03-03T05:10:36.769Z,74.46
2019-03-03T05:11:36.276Z,74.63
2019-03-03T05:12:36.322Z,73.95
2019-03-03T05:13:36.329Z,73.74
2019-03-03T05:14:36.248Z,73.23
2019-03-03T05:15:36.236Z,73.64
2019-03-03T05:16:36.236Z,73.54
2019-03-03T05:17:37.655Z,73.74
2019-03-03T05:18:36.232Z,74.15
2019-03-03T05:19:36.236Z,73.95
2019-03-03T05:20:36.174Z,73.64
2019-03-03T05:21:36.173Z,73.61
2019-03-03T05:22:36.150Z,73.54
2019-03-03T05:23:36.219Z,73.54
2019-03-03T05:24:38.723Z,73.95
2019-03-03T05:25:36.211Z,74.15
2019-03-03T05:26:36.113Z,73.74
2019-03-03T05:27:36.128Z,73.85
2019-03-03T05:28:36.116Z,74.32
2019-03-03T05:29:36.091Z,74.02
2019-03-03T05:30:36.071Z,74.26
2019-03-03T05:31:37.625Z,74.22
2019-03-03T05:32:36.056Z,73.81
2019-03-03T05:33:36.063Z,73.85
2019-03-03T05:34:36.042Z,73.71
2019-03-03T05:35:36.019Z,73.50
2019-03-03T05:36:36.019Z,73.40
2019-03-03T05:37:36.361Z,74.46
2019-03-03T05:38:36.001Z,74.66
2019-03-03T05:39:35.998Z,74.05
2019-03-03T05:40:35.970Z,74.05
2019-03-03T05:41:35.965Z,74.46
2019-03-03T05:42:35.952Z,74.46
2019-03-03T05:43:36.246Z,73.95
2019-03-03T05:44:35.930Z,74.05
2019-03-03T05:45:35.934Z,74.15
2019-03-03T05:46:35.921Z,73.95
2019-03-03T05:47:35.970Z,74.05
2019-03-03T05:48:35.905Z,73.81
2019-03-03T05:49:36.219Z,74.15
2019-03-03T05:50:35.866Z,74.53
2019-03-03T05:51:35.893Z,73.91
2019-03-03T05:52:36.530Z,74.53
2019-03-03T05:53:35.834Z,73.54
2019-03-03T05:54:35.825Z,74.46
2019-03-03T05:55:35.844Z,74.56
2019-03-03T05:56:35.795Z,74.46
2019-03-03T05:57:35.795Z,75.07
2019-03-03T05:58:35.799Z,75.59
2019-03-03T05:59:35.781Z,75.79
2019-03-03T06:00:35.779Z,75.89
2019-03-03T06:01:35.819Z,76.10
2019-03-03T06:02:35.756Z,76.10
2019-03-03T06:03:35.740Z,75.79
2019-03-03T06:04:35.743Z,76.20
2019-03-03T06:05:35.689Z,75.69
2019-03-03T06:06:35.692Z,75.38
2019-03-03T06:07:38.076Z,75.99
2019-03-03T06:08:35.700Z,75.89
2019-03-03T06:09:35.696Z,75.59
2019-03-03T06:10:35.640Z,76.20
2019-03-03T06:11:35.641Z,76.34
2019-03-03T06:12:35.660Z,75.73
2019-03-03T06:13:35.730Z,76.10
2019-03-03T06:14:36.202Z,76.03
2019-03-03T06:15:35.615Z,75.69
2019-03-03T06:16:35.585Z,75.82
2019-03-03T06:17:35.590Z,76.31
2019-03-03T06:18:35.570Z,76.20
2019-03-03T06:19:35.663Z,75.69
2019-03-03T06:20:35.557Z,75.79
2019-03-03T06:21:36.979Z,75.99
2019-03-03T06:22:35.521Z,76.31
2019-03-03T06:23:35.523Z,75.79
2019-03-03T06:24:35.515Z,75.93
2019-03-03T06:25:35.521Z,76.31
2019-03-03T06:26:35.479Z,76.40
2019-03-03T06:27:35.474Z,76.31
2019-03-03T06:28:35.821Z,75.79
2019-03-03T06:29:35.449Z,75.79
2019-03-03T06:30:35.456Z,75.99
2019-03-03T06:31:35.473Z,75.73
2019-03-03T06:32:35.431Z,75.59
2019-03-03T06:33:35.405Z,75.99
2019-03-03T06:34:35.390Z,75.99
2019-03-03T06:35:35.866Z,75.48
2019-03-03T06:36:35.373Z,75.96
2019-03-03T06:37:35.423Z,75.48
2019-03-03T06:38:35.375Z,75.59
2019-03-03T06:39:35.344Z,76.10
2019-03-03T06:40:35.341Z,75.99
2019-03-03T06:41:35.335Z,75.99
2019-03-03T06:42:35.709Z,75.89
2019-03-03T06:43:35.349Z,75.55
2019-03-03T06:44:35.288Z,76.20
2019-03-03T06:45:35.294Z,76.17
2019-03-03T06:46:35.274Z,75.99
2019-03-03T06:47:35.256Z,75.48
2019-03-03T06:48:35.245Z,75.89
2019-03-03T06:49:35.885Z,75.69
2019-03-03T06:50:35.227Z,75.35
2019-03-03T06:51:35.229Z,75.65
2019-03-03T06:52:35.214Z,75.35
2019-03-03T06:53:35.194Z,75.99
2019-03-03T06:54:35.251Z,76.20
2019-03-03T06:55:35.315Z,77.39
2019-03-03T06:56:35.489Z,77.12
2019-03-03T06:57:35.161Z,77.43
2019-03-03T06:58:35.140Z,77.73
2019-03-03T06:59:35.124Z,77.84
2019-03-03T07:00:35.115Z,78.66
2019-03-03T07:01:35.130Z,78.35
2019-03-03T07:02:35.104Z,78.25
2019-03-03T07:03:35.390Z,78.35
2019-03-03T07:04:35.084Z,78.39
2019-03-03T07:05:35.068Z,78.05
2019-03-03T07:06:35.062Z,78.56
2019-03-03T07:07:35.184Z,78.45
2019-03-03T07:08:35.034Z,78.35
2019-03-03T07:09:35.021Z,78.66
2019-03-03T07:10:35.490Z,78.05
2019-03-03T07:11:35.001Z,78.45
2019-03-03T07:12:35.005Z,78.56
2019-03-03T07:13:35.031Z,78.25
2019-03-03T07:14:34.979Z,78.66
2019-03-03T07:15:34.975Z,78.76
2019-03-03T07:16:35.045Z,78.76
2019-03-03T07:17:36.295Z,79.27
2019-03-03T07:18:34.951Z,80.09
2019-03-03T07:19:34.970Z,78.66
2019-03-03T07:20:35.516Z,79.79
2019-03-03T07:21:34.899Z,80.09
2019-03-03T07:22:34.902Z,79.38
2019-03-03T07:23:34.881Z,79.89
2019-03-03T07:24:35.363Z,80.19
2019-03-03T07:25:34.948Z,79.48
2019-03-03T07:26:34.882Z,80.19
2019-03-03T07:27:34.849Z,80.40
2019-03-03T07:28:35.151Z,80.60
2019-03-03T07:29:34.801Z,80.64
2019-03-03T07:30:34.788Z,81.36
2019-03-03T07:31:35.005Z,81.32
2019-03-03T07:32:34.792Z,81.87
2019-03-03T07:33:34.769Z,83.41
2019-03-03T07:34:34.814Z,81.87
2019-03-03T07:35:34.770Z,82.39
2019-03-03T07:36:34.726Z,82.45
2019-03-03T07:37:35.090Z,82.69
2019-03-03T07:38:34.701Z,83.10
2019-03-03T07:39:34.726Z,83.61
2019-03-03T07:40:34.685Z,84.03
2019-03-03T07:41:34.667Z,84.12
2019-03-03T07:42:34.670Z,84.33
2019-03-03T07:43:34.685Z,84.03
2019-03-03T07:44:34.671Z,84.88
2019-03-03T07:45:34.655Z,84.84
2019-03-03T07:46:34.649Z,85.19
2019-03-03T07:47:34.629Z,84.84
2019-03-03T07:48:34.619Z,85.05
2019-03-03T07:49:34.950Z,84.99
2019-03-03T07:50:34.605Z,85.50
2019-03-03T07:51:34.594Z,85.09
2019-03-03T07:52:34.555Z,85.71
2019-03-03T07:53:34.549Z,85.19
2019-03-03T07:54:34.540Z,85.19
2019-03-03T07:55:34.575Z,86.22
2019-03-03T07:56:34.544Z,85.80
2019-03-03T07:57:34.578Z,86.38
2019-03-03T07:58:34.534Z,86.52
2019-03-03T07:59:34.487Z,86.11
2019-03-03T08:00:34.490Z,86.32
2019-03-03T08:01:34.490Z,86.01
2019-03-03T08:02:34.498Z,86.63
2019-03-03T08:03:34.433Z,86.22
2019-03-03T08:04:34.435Z,86.36
2019-03-03T08:05:34.420Z,86.32
2019-03-03T08:06:34.450Z,86.42
2019-03-03T08:07:34.878Z,85.80
2019-03-03T08:08:34.429Z,86.22
2019-03-03T08:09:34.408Z,86.11
2019-03-03T08:10:34.366Z,86.52
2019-03-03T08:11:34.353Z,86.32
2019-03-03T08:12:34.337Z,86.42
2019-03-03T08:13:34.391Z,86.42
2019-03-03T08:14:34.684Z,86.42
2019-03-03T08:15:34.326Z,86.42
2019-03-03T08:16:35.004Z,86.42
2019-03-03T08:17:34.311Z,86.73
2019-03-03T08:18:34.296Z,86.32
2019-03-03T08:19:34.323Z,86.01
2019-03-03T08:20:34.275Z,86.22
2019-03-03T08:21:34.723Z,86.42
2019-03-03T08:22:34.250Z,86.22
2019-03-03T08:23:34.249Z,86.58
2019-03-03T08:24:34.231Z,86.11
2019-03-03T08:25:34.264Z,86.63
2019-03-03T08:26:34.210Z,87.14
2019-03-03T08:27:34.201Z,86.93
2019-03-03T08:28:34.649Z,87.38
2019-03-03T08:29:34.193Z,87.65
2019-03-03T08:30:34.211Z,87.76
2019-03-03T08:31:34.175Z,87.65
2019-03-03T08:32:34.151Z,88.06
2019-03-03T08:33:34.108Z,88.27
2019-03-03T08:34:34.140Z,88.41
2019-03-03T08:35:34.596Z,89.09
2019-03-03T08:36:34.127Z,89.19
2019-03-03T08:37:34.113Z,89.13
2019-03-03T08:38:34.106Z,89.09
2019-03-03T08:39:37.020Z,88.47
2019-03-03T08:40:34.053Z,88.78
2019-03-03T08:41:34.050Z,88.78
2019-03-03T08:42:34.437Z,88.88
2019-03-03T08:43:34.369Z,89.19
2019-03-03T08:44:34.506Z,88.88
2019-03-03T08:45:34.020Z,88.57
2019-03-03T08:46:33.989Z,88.88
2019-03-03T08:47:33.977Z,89.81
2019-03-03T08:48:33.973Z,89.29
2019-03-03T08:49:34.295Z,89.19
2019-03-03T08:50:33.948Z,89.90
2019-03-03T08:51:33.940Z,88.98
2019-03-03T08:52:33.974Z,88.94
2019-03-03T08:53:33.972Z,89.50
2019-03-03T08:54:34.488Z,89.39
2019-03-03T08:55:34.241Z,89.50
2019-03-03T08:56:34.179Z,90.22
2019-03-03T08:57:34.035Z,90.11
2019-03-03T08:58:33.874Z,89.84
2019-03-03T08:59:33.858Z,90.11
2019-03-03T09:00:33.895Z,89.60
2019-03-03T09:01:33.913Z,88.78
2019-03-03T09:02:33.911Z,89.29
2019-03-03T09:03:33.855Z,89.60
2019-03-03T09:04:34.001Z,89.09
2019-03-03T09:05:33.786Z,90.11
2019-03-03T09:06:33.793Z,89.50
2019-03-03T09:07:33.808Z,90.22
2019-03-03T09:08:33.755Z,91.03
2019-03-03T09:09:34.215Z,90.62
2019-03-03T09:10:33.821Z,90.42
2019-03-03T09:11:33.817Z,90.73
2019-03-03T09:12:34.507Z,90.73
2019-03-03T09:13:33.828Z,90.93
2019-03-03T09:14:34.565Z,90.42
2019-03-03T09:15:33.685Z,91.03
2019-03-03T09:16:33.740Z,90.73
2019-03-03T09:17:33.653Z,90.42
2019-03-03T09:18:33.710Z,90.22
2019-03-03T09:19:34.516Z,90.73
2019-03-03T09:20:35.055Z,90.83
2019-03-03T09:21:40.251Z,90.62
2019-03-03T09:22:34.839Z,90.37
2019-03-03T09:23:34.661Z,90.73
2019-03-03T09:24:33.806Z,90.99
2019-03-03T09:25:38.103Z,90.52
2019-03-03T09:26:34.536Z,90.73
2019-03-03T09:27:35.143Z,90.52
2019-03-03T09:28:38.242Z,92.06
2019-03-03T09:29:33.559Z,91.75
2019-03-03T09:30:33.629Z,92.16
2019-03-03T09:31:33.616Z,92.41
2019-03-03T09:32:33.512Z,92.27
2019-03-03T09:33:33.541Z,92.47
2019-03-03T09:34:33.562Z,91.96
2019-03-03T09:35:33.856Z,91.96
2019-03-03T09:36:33.471Z,92.16
2019-03-03T09:37:33.571Z,91.96
2019-03-03T09:38:33.449Z,92.36
2019-03-03T09:39:33.701Z,92.06
2019-03-03T09:40:33.407Z,92.16
2019-03-03T09:41:33.410Z,91.91
2019-03-03T09:42:33.399Z,92.16
2019-03-03T09:43:33.435Z,92.06
2019-03-03T09:44:33.406Z,92.57
2019-03-03T09:45:33.383Z,92.78
2019-03-03T09:46:33.359Z,92.68
2019-03-03T09:47:34.663Z,93.08
2019-03-03T09:48:33.350Z,92.98
2019-03-03T09:49:34.016Z,92.88
2019-03-03T09:50:33.310Z,93.60
2019-03-03T09:51:33.300Z,93.60
2019-03-03T09:52:33.583Z,94.01
2019-03-03T09:53:33.282Z,94.01
2019-03-03T09:54:33.569Z,94.21
2019-03-03T09:55:33.299Z,94.01
2019-03-03T09:56:33.299Z,94.01
2019-03-03T09:57:33.226Z,93.80
2019-03-03T09:58:33.257Z,94.01
2019-03-03T09:59:33.211Z,94.01
2019-03-03T10:00:33.201Z,94.01
2019-03-03T10:01:33.321Z,94.42
2019-03-03T10:02:33.175Z,94.32
2019-03-03T10:03:33.179Z,94.01
2019-03-03T10:04:33.180Z,94.11
2019-03-03T10:05:33.151Z,95.14
2019-03-03T10:06:33.152Z,94.93
2019-03-03T10:07:33.573Z,94.73
2019-03-03T10:08:33.136Z,94.62
2019-03-03T10:09:33.116Z,94.73
2019-03-03T10:10:33.100Z,95.14
2019-03-03T10:11:33.997Z,94.62
2019-03-03T10:12:33.078Z,95.03
2019-03-03T10:13:33.180Z,94.73
2019-03-03T10:14:34.304Z,94.78
2019-03-03T10:15:33.043Z,94.89
2019-03-03T10:16:33.060Z,94.52
2019-03-03T10:17:33.026Z,94.11
2019-03-03T10:18:34.005Z,94.93
2019-03-03T10:19:33.070Z,94.01
2019-03-03T10:20:33.041Z,94.32
2019-03-03T10:21:33.516Z,93.76
2019-03-03T10:22:32.986Z,93.90
2019-03-03T10:23:32.972Z,94.58
2019-03-03T10:24:32.951Z,93.96
2019-03-03T10:25:33.855Z,94.89
2019-03-03T10:26:34.989Z,94.07
2019-03-03T10:27:32.911Z,94.48
2019-03-03T10:28:34.922Z,94.32
2019-03-03T10:29:33.499Z,94.48
2019-03-03T10:30:32.927Z,94.89
2019-03-03T10:31:32.925Z,94.78
2019-03-03T10:32:33.321Z,94.89
2019-03-03T10:33:33.461Z,94.78
2019-03-03T10:34:32.927Z,94.68
2019-03-03T10:35:33.367Z,95.29
2019-03-03T10:36:32.811Z,94.37
2019-03-03T10:37:32.890Z,93.96
2019-03-03T10:38:36.189Z,94.48
2019-03-03T10:39:32.915Z,94.17
2019-03-03T10:40:32.788Z,94.07
2019-03-03T10:41:32.840Z,94.48
2019-03-03T10:42:34.102Z,93.96
2019-03-03T10:43:32.801Z,94.07
2019-03-03T10:44:32.749Z,94.27
2019-03-03T10:45:32.785Z,93.96
2019-03-03T10:46:32.714Z,94.68
2019-03-03T10:47:32.718Z,94.07
2019-03-03T10:48:32.680Z,93.66
2019-03-03T10:49:33.229Z,93.86
2019-03-03T10:50:32.770Z,93.92
2019-03-03T10:51:33.847Z,93.92
2019-03-03T10:52:34.141Z,93.71
2019-03-03T10:53:32.862Z,93.62
2019-03-03T10:54:32.781Z,93.00
2019-03-03T10:55:33.663Z,93.10
2019-03-03T10:56:34.731Z,93.15
2019-03-03T10:57:32.613Z,92.74
2019-03-03T10:58:32.590Z,93.10
2019-03-03T10:59:32.574Z,92.38
2019-03-03T11:00:32.576Z,92.69
2019-03-03T11:01:33.148Z,92.59
2019-03-03T11:02:32.550Z,92.59
2019-03-03T11:03:33.468Z,92.24
2019-03-03T11:04:33.453Z,91.97
2019-03-03T11:05:32.519Z,91.97
2019-03-03T11:06:32.499Z,92.18
2019-03-03T11:07:32.945Z,92.28
2019-03-03T11:08:32.515Z,91.97
2019-03-03T11:09:32.475Z,91.97
2019-03-03T11:10:32.782Z,92.03
2019-03-03T11:11:32.480Z,91.83
2019-03-03T11:12:32.439Z,91.22
2019-03-03T11:13:32.518Z,91.11
2019-03-03T11:14:32.415Z,90.50
2019-03-03T11:15:32.416Z,90.81
2019-03-03T11:16:32.434Z,90.70
2019-03-03T11:17:32.713Z,90.50
2019-03-03T11:18:32.367Z,90.70
2019-03-03T11:19:32.437Z,89.68
2019-03-03T11:20:32.348Z,90.39
2019-03-03T11:21:32.335Z,90.19
2019-03-03T11:22:32.597Z,90.45
2019-03-03T11:23:32.489Z,89.89
2019-03-03T11:24:32.955Z,89.37
2019-03-03T11:25:33.296Z,89.78
2019-03-03T11:26:32.602Z,90.19
2019-03-03T11:27:32.318Z,90.09
2019-03-03T11:28:32.316Z,89.98
2019-03-03T11:29:32.270Z,89.68
2019-03-03T11:30:32.251Z,90.09
2019-03-03T11:31:32.335Z,89.98
2019-03-03T11:32:32.235Z,89.37
2019-03-03T11:33:32.222Z,90.09
2019-03-03T11:34:32.227Z,90.91
2019-03-03T11:35:32.193Z,90.30
2019-03-03T11:36:32.196Z,90.60
2019-03-03T11:37:32.284Z,89.64
2019-03-03T11:38:32.507Z,90.05
2019-03-03T11:39:32.191Z,90.05
2019-03-03T11:40:32.138Z,90.91
2019-03-03T11:41:32.134Z,90.45
2019-03-03T11:42:32.148Z,90.30
2019-03-03T11:43:33.028Z,90.39
2019-03-03T11:44:32.112Z,90.19
2019-03-03T11:45:33.470Z,90.50
2019-03-03T11:46:32.100Z,90.81
2019-03-03T11:47:39.035Z,90.39
2019-03-03T11:48:32.081Z,90.30
2019-03-03T11:49:39.011Z,90.45
2019-03-03T11:50:32.042Z,90.30
2019-03-03T11:51:32.037Z,90.30
2019-03-03T11:52:32.996Z,90.25
2019-03-03T11:53:32.028Z,89.74
2019-03-03T11:54:32.996Z,89.43
2019-03-03T11:55:32.201Z,89.03
2019-03-03T11:56:32.018Z,90.05
2019-03-03T11:57:31.994Z,89.12
2019-03-03T11:58:32.287Z,89.43
2019-03-03T11:59:31.953Z,89.53
2019-03-03T12:00:32.486Z,89.33
2019-03-03T12:01:32.041Z,89.94
2019-03-03T12:02:32.694Z,88.92
2019-03-03T12:03:31.901Z,89.23
2019-03-03T12:04:31.884Z,89.94
2019-03-03T12:05:31.901Z,89.03
2019-03-03T12:06:31.860Z,89.64
2019-03-03T12:07:31.993Z,90.05
2019-03-03T12:08:31.848Z,90.15
2019-03-03T12:09:31.856Z,90.11
2019-03-03T12:10:33.595Z,89.64
2019-03-03T12:11:31.849Z,89.12
2019-03-03T12:12:31.839Z,89.29
2019-03-03T12:13:31.953Z,89.09
2019-03-03T12:14:32.523Z,88.88
2019-03-03T12:15:31.772Z,88.88
2019-03-03T12:16:31.757Z,89.18
2019-03-03T12:17:31.774Z,89.53
2019-03-03T12:18:31.745Z,89.18
2019-03-03T12:19:32.205Z,89.53
2019-03-03T12:20:31.787Z,90.05
2019-03-03T12:21:31.751Z,89.94
2019-03-03T12:22:32.016Z,90.05
2019-03-03T12:23:31.753Z,89.84
2019-03-03T12:24:31.706Z,90.05
2019-03-03T12:25:31.792Z,90.25
2019-03-03T12:26:31.667Z,90.15
2019-03-03T12:27:31.690Z,90.05
2019-03-03T12:28:31.632Z,90.25
2019-03-03T12:29:31.646Z,90.05
2019-03-03T12:30:31.622Z,90.15
2019-03-03T12:31:31.710Z,90.66
2019-03-03T12:32:31.605Z,90.05
2019-03-03T12:33:31.645Z,90.25
2019-03-03T12:34:31.591Z,90.66
2019-03-03T12:35:32.043Z,91.07
2019-03-03T12:36:31.613Z,91.99
2019-03-03T12:37:32.954Z,91.73
2019-03-03T12:38:31.556Z,91.69
2019-03-03T12:39:31.541Z,91.48
2019-03-03T12:40:31.559Z,91.69
2019-03-03T12:41:31.503Z,91.89
2019-03-03T12:42:31.820Z,92.40
2019-03-03T12:43:31.621Z,91.89
2019-03-03T12:44:31.501Z,91.99
2019-03-03T12:45:31.495Z,91.73
2019-03-03T12:46:31.465Z,91.78
2019-03-03T12:47:31.497Z,91.69
2019-03-03T12:48:31.440Z,91.69
2019-03-03T12:49:32.181Z,91.63
2019-03-03T12:50:31.453Z,91.93
2019-03-03T12:51:31.412Z,92.10
2019-03-03T12:52:31.433Z,91.99
2019-03-03T12:53:31.426Z,91.89